createdAt,value
2018-05-04T00:00:48.796Z,15.66
2018-05-04T00:03:16.370Z,15.67
2018-05-04T00:05:43.938Z,15.65
2018-05-04T00:08:11.628Z,15.62
2018-05-04T00:10:39.288Z,15.61
2018-05-04T00:13:06.835Z,15.63
2018-05-04T00:15:34.396Z,15.63
2018-05-04T00:18:01.961Z,15.65
2018-05-04T00:20:29.558Z,15.64
2018-05-04T00:22:57.125Z,15.58
2018-05-04T00:25:24.769Z,15.50
2018-05-04T00:27:52.373Z,15.47
2018-05-04T00:30:19.932Z,15.41
2018-05-04T00:32:47.501Z,15.38
2018-05-04T00:35:15.056Z,15.35
2018-05-04T00:37:42.629Z,15.32
2018-05-04T00:40:10.209Z,15.31
2018-05-04T00:42:37.880Z,15.30
2018-05-04T00:45:05.433Z,15.28
2018-05-04T00:47:32.997Z,15.25
2018-05-04T00:50:00.564Z,15.21
2018-05-04T00:52:28.119Z,15.22
2018-05-04T00:54:55.689Z,15.24
2018-05-04T00:57:23.313Z,15.30
2018-05-04T00:59:50.885Z,15.26
2018-05-04T01:02:18.490Z,15.24
2018-05-04T01:04:46.101Z,15.24
2018-05-04T01:07:13.717Z,15.23
2018-05-04T01:09:41.345Z,15.28
2018-05-04T01:12:08.991Z,15.31
2018-05-04T01:14:36.620Z,15.31
2018-05-04T01:17:04.204Z,15.31
2018-05-04T01:19:31.765Z,15.29
2018-05-04T01:21:59.376Z,15.19
2018-05-04T01:24:26.941Z,15.12
2018-05-04T01:26:54.497Z,15.08
2018-05-04T01:29:22.129Z,15.03
2018-05-04T01:31:49.759Z,15.00
2018-05-04T01:34:17.328Z,14.92
2018-05-04T01:36:44.888Z,14.87
2018-05-04T01:39:12.541Z,14.83
2018-05-04T01:41:40.168Z,14.79
2018-05-04T01:44:07.785Z,14.79
2018-05-04T01:46:35.408Z,14.79
2018-05-04T01:49:02.968Z,14.79
2018-05-04T01:51:30.541Z,14.77
2018-05-04T01:53:58.102Z,14.76
2018-05-04T01:56:25.725Z,14.76
2018-05-04T01:58:53.345Z,14.76
2018-05-04T02:01:20.906Z,14.74
2018-05-04T02:03:48.479Z,14.71
2018-05-04T02:06:16.044Z,14.67
2018-05-04T02:08:43.675Z,14.62
2018-05-04T02:11:11.239Z,14.60
2018-05-04T02:13:38.857Z,14.58
2018-05-04T02:16:06.416Z,14.56
2018-05-04T02:18:33.977Z,14.59
2018-05-04T02:21:01.549Z,14.56
2018-05-04T02:23:29.169Z,14.51
2018-05-04T02:25:56.763Z,14.48
2018-05-04T02:28:24.333Z,14.46
2018-05-04T02:30:51.984Z,14.43
2018-05-04T02:33:19.606Z,14.44
2018-05-04T02:35:47.225Z,14.45
2018-05-04T02:38:14.801Z,14.44
2018-05-04T02:40:42.360Z,14.44
2018-05-04T02:43:09.977Z,14.46
2018-05-04T02:45:37.533Z,14.42
2018-05-04T02:48:05.146Z,14.46
2018-05-04T02:50:32.766Z,14.46
2018-05-04T02:53:00.389Z,14.45
2018-05-04T02:55:28.070Z,14.45
2018-05-04T02:57:55.613Z,14.46
2018-05-04T03:00:23.181Z,14.40
2018-05-04T03:02:50.768Z,14.35
2018-05-04T03:05:18.392Z,14.32
2018-05-04T03:07:45.949Z,14.31
2018-05-04T03:10:13.508Z,14.32
2018-05-04T03:12:41.146Z,14.33
2018-05-04T03:15:08.706Z,14.33
2018-05-04T03:17:36.276Z,14.37
2018-05-04T03:20:03.886Z,14.44
2018-05-04T03:22:31.578Z,14.54
2018-05-04T03:24:59.148Z,14.66
2018-05-04T03:27:26.769Z,14.78
2018-05-04T03:29:54.340Z,14.92
2018-05-04T03:32:21.904Z,15.07
2018-05-04T03:34:49.529Z,15.28
2018-05-04T03:37:17.088Z,15.47
2018-05-04T03:39:45.634Z,15.72
2018-05-04T03:42:13.193Z,15.99
2018-05-04T03:44:40.810Z,16.20
2018-05-04T03:47:08.409Z,16.48
2018-05-04T03:49:35.972Z,16.74
2018-05-04T03:52:03.543Z,16.96
2018-05-04T03:54:31.132Z,17.21
2018-05-04T03:57:10.641Z,17.45
2018-05-04T03:59:49.984Z,17.68
2018-05-04T04:02:29.548Z,17.79
2018-05-04T04:04:57.109Z,18.01
2018-05-04T04:07:24.738Z,18.23
2018-05-04T04:09:52.308Z,18.43
2018-05-04T04:12:19.872Z,18.63
2018-05-04T04:14:47.460Z,18.68
2018-05-04T04:17:15.021Z,18.80
2018-05-04T04:19:42.636Z,18.98
2018-05-04T04:22:10.221Z,19.34
2018-05-04T04:24:37.780Z,19.36
2018-05-04T04:27:05.348Z,19.25
2018-05-04T04:29:32.972Z,19.23
2018-05-04T04:32:00.616Z,19.18
2018-05-04T04:34:28.176Z,19.19
2018-05-04T04:36:55.741Z,19.18
2018-05-04T04:39:23.312Z,19.22
2018-05-04T04:41:50.937Z,19.23
2018-05-04T04:44:18.517Z,19.26
2018-05-04T04:46:46.133Z,19.32
2018-05-04T04:49:13.764Z,19.46
2018-05-04T04:51:43.627Z,19.66
2018-05-04T04:54:11.254Z,20.01
2018-05-04T04:56:44.967Z,20.52
2018-05-04T04:59:12.556Z,21.18
2018-05-04T05:01:40.232Z,22.10
2018-05-04T05:04:07.789Z,23.33
2018-05-04T05:06:35.348Z,24.51
2018-05-04T05:09:02.977Z,25.48
2018-05-04T05:11:30.604Z,26.30
2018-05-04T05:13:58.224Z,27.27
2018-05-04T05:16:25.856Z,28.58
2018-05-04T05:18:53.422Z,29.52
2018-05-04T05:21:20.996Z,30.32
2018-05-04T05:23:48.624Z,31.01
2018-05-04T05:26:16.217Z,31.84
2018-05-04T05:28:43.833Z,32.21
2018-05-04T05:31:11.445Z,32.77
2018-05-04T05:33:39.005Z,32.94
2018-05-04T05:36:06.568Z,32.10
2018-05-04T05:38:34.161Z,30.96
2018-05-04T05:41:01.724Z,29.87
2018-05-04T05:43:29.291Z,29.66
2018-05-04T05:45:56.881Z,29.24
2018-05-04T05:48:24.532Z,29.82
2018-05-04T05:50:52.157Z,30.59
2018-05-04T05:53:19.786Z,31.21
2018-05-04T05:55:47.413Z,31.70
2018-05-04T05:58:14.968Z,31.57
2018-05-04T06:00:42.547Z,31.41
2018-05-04T06:03:10.178Z,32.02
2018-05-04T06:05:37.795Z,32.02
2018-05-04T06:08:05.413Z,32.87
2018-05-04T06:10:33.010Z,32.84
2018-05-04T06:13:00.600Z,32.47
2018-05-04T06:15:28.217Z,32.36
2018-05-04T06:17:55.792Z,32.20
2018-05-04T06:20:23.444Z,31.35
2018-05-04T06:22:51.056Z,30.47
2018-05-04T06:25:18.616Z,29.68
2018-05-04T06:27:46.176Z,29.29
2018-05-04T06:30:13.743Z,29.09
2018-05-04T06:32:41.296Z,28.80
2018-05-04T06:35:08.928Z,28.66
2018-05-04T06:37:36.545Z,28.56
2018-05-04T06:40:04.274Z,28.78
2018-05-04T06:42:31.830Z,29.33
2018-05-04T06:44:59.463Z,29.59
2018-05-04T06:47:27.089Z,29.74
2018-05-04T06:49:54.656Z,30.98
2018-05-04T06:52:22.224Z,32.10
2018-05-04T06:54:49.800Z,32.95
2018-05-04T06:57:17.496Z,33.93
2018-05-04T06:59:45.048Z,33.30
2018-05-04T07:02:12.613Z,32.15
2018-05-04T07:04:40.185Z,30.78
2018-05-04T07:07:07.744Z,30.27
2018-05-04T07:09:35.312Z,30.06
2018-05-04T07:12:02.937Z,29.70
2018-05-04T07:14:30.553Z,29.31
2018-05-04T07:16:58.128Z,29.04
2018-05-04T07:19:25.686Z,28.75
2018-05-04T07:21:53.266Z,28.58
2018-05-04T07:24:20.828Z,28.53
2018-05-04T07:26:48.531Z,28.61
2018-05-04T07:29:16.084Z,28.63
2018-05-04T07:31:43.700Z,28.47
2018-05-04T07:34:11.323Z,28.58
2018-05-04T07:36:38.967Z,28.93
2018-05-04T07:39:06.533Z,29.91
2018-05-04T07:41:34.084Z,30.16
2018-05-04T07:44:01.676Z,30.55
2018-05-04T07:46:29.297Z,31.01
2018-05-04T07:48:56.900Z,31.41
2018-05-04T07:51:24.472Z,31.00
2018-05-04T07:53:55.027Z,30.24
2018-05-04T07:56:34.501Z,30.22
2018-05-04T07:59:02.063Z,29.98
2018-05-04T08:01:29.639Z,29.76
2018-05-04T08:03:57.196Z,29.96
2018-05-04T08:06:24.847Z,30.34
2018-05-04T08:08:52.484Z,30.42
2018-05-04T08:11:20.052Z,30.23
2018-05-04T08:13:47.677Z,30.26
2018-05-04T08:16:15.217Z,30.70
2018-05-04T08:18:42.878Z,30.63
2018-05-04T08:21:10.624Z,30.66
2018-05-04T08:23:38.289Z,30.57
2018-05-04T08:26:05.844Z,30.47
2018-05-04T08:28:33.497Z,30.49
2018-05-04T08:31:01.064Z,30.50
2018-05-04T08:33:28.678Z,30.36
2018-05-04T08:35:56.296Z,30.36
2018-05-04T08:38:23.949Z,30.47
2018-05-04T08:40:51.568Z,30.58
2018-05-04T08:43:19.129Z,30.68
2018-05-04T08:45:46.676Z,30.49
2018-05-04T08:48:14.255Z,30.58
2018-05-04T08:50:41.884Z,30.80
2018-05-04T08:53:09.505Z,30.99
2018-05-04T08:55:37.068Z,31.02
2018-05-04T08:58:04.759Z,31.06
2018-05-04T09:00:32.393Z,31.03
2018-05-04T09:03:00.010Z,31.03
2018-05-04T09:05:27.857Z,31.03
2018-05-04T09:07:55.255Z,31.14
2018-05-04T09:10:22.933Z,31.24
2018-05-04T09:12:50.627Z,31.34
2018-05-04T09:15:18.146Z,31.21
2018-05-04T09:17:45.773Z,31.48
2018-05-04T09:20:13.329Z,31.84
2018-05-04T09:22:40.946Z,31.98
2018-05-04T09:25:08.501Z,32.24
2018-05-04T09:27:36.117Z,32.64
2018-05-04T09:30:03.679Z,32.77
2018-05-04T09:32:31.308Z,32.91
2018-05-04T09:34:58.830Z,32.90
2018-05-04T09:37:26.426Z,33.16
2018-05-04T09:39:54.102Z,33.19
2018-05-04T09:42:21.664Z,33.28
2018-05-04T09:44:49.281Z,33.34
2018-05-04T09:47:16.845Z,33.51
2018-05-04T09:49:44.401Z,33.57
2018-05-04T09:52:12.016Z,34.18
2018-05-04T09:54:39.569Z,34.48
2018-05-04T09:57:07.139Z,34.44
2018-05-04T09:59:34.779Z,34.69
2018-05-04T10:02:02.351Z,34.53
2018-05-04T10:04:29.927Z,34.38
2018-05-04T10:06:57.561Z,34.40
2018-05-04T10:09:25.174Z,34.16
2018-05-04T10:11:52.788Z,34.29
2018-05-04T10:14:20.386Z,34.35
2018-05-04T10:16:47.952Z,34.37
2018-05-04T10:19:15.514Z,34.40
2018-05-04T10:21:43.138Z,34.45
2018-05-04T10:24:10.701Z,34.52
2018-05-04T10:26:38.325Z,34.74
2018-05-04T10:29:05.885Z,34.80
2018-05-04T10:31:33.520Z,34.96
2018-05-04T10:34:01.085Z,35.33
2018-05-04T10:36:28.644Z,35.83
2018-05-04T10:38:56.414Z,36.11
2018-05-04T10:41:23.807Z,36.34
2018-05-04T10:43:51.428Z,36.84
2018-05-04T10:46:18.971Z,37.31
2018-05-04T10:48:46.584Z,37.60
2018-05-04T10:51:14.157Z,38.14
2018-05-04T10:53:41.738Z,38.10
2018-05-04T10:56:09.328Z,38.14
2018-05-04T10:58:36.913Z,38.01
2018-05-04T11:01:04.595Z,37.91
2018-05-04T11:03:32.163Z,37.71
2018-05-04T11:05:59.726Z,37.59
2018-05-04T11:08:27.305Z,37.34
2018-05-04T11:10:54.929Z,37.65
2018-05-04T11:13:22.502Z,37.88
2018-05-04T11:15:50.064Z,38.76
2018-05-04T11:18:17.684Z,39.41
2018-05-04T11:20:45.255Z,40.21
2018-05-04T11:23:12.822Z,39.91
2018-05-04T11:25:40.422Z,39.71
2018-05-04T11:28:08.041Z,40.71
2018-05-04T11:30:35.673Z,40.81
2018-05-04T11:33:03.272Z,41.07
2018-05-04T11:35:30.925Z,41.35
2018-05-04T11:37:58.481Z,40.82
2018-05-04T11:40:26.056Z,40.69
2018-05-04T11:42:53.649Z,40.46
2018-05-04T11:45:21.208Z,39.70
2018-05-04T11:47:48.844Z,39.37
2018-05-04T11:50:16.404Z,39.14
2018-05-04T11:52:44.031Z,38.94
2018-05-04T11:55:11.713Z,38.31
2018-05-04T11:57:39.253Z,38.05
2018-05-04T12:00:06.798Z,38.21
2018-05-04T12:02:34.395Z,38.84
2018-05-04T12:05:01.965Z,39.50
2018-05-04T12:07:29.533Z,39.04
2018-05-04T12:09:57.225Z,38.86
2018-05-04T12:12:24.881Z,38.75
2018-05-04T12:14:52.436Z,38.26
2018-05-04T12:17:20.065Z,37.72
2018-05-04T12:19:47.675Z,37.98
2018-05-04T12:22:15.297Z,37.98
2018-05-04T12:24:42.917Z,38.13
2018-05-04T12:27:10.532Z,38.45
2018-05-04T12:29:38.088Z,38.50
2018-05-04T12:32:05.674Z,38.25
2018-05-04T12:34:33.240Z,37.93
2018-05-04T12:37:00.967Z,38.73
2018-05-04T12:39:28.521Z,38.81
2018-05-04T12:41:56.126Z,38.08
2018-05-04T12:44:23.748Z,37.44
2018-05-04T12:46:51.320Z,37.15
2018-05-04T12:49:18.876Z,37.34
2018-05-04T12:51:46.503Z,37.34
2018-05-04T12:54:14.124Z,36.98
2018-05-04T12:56:41.715Z,37.07
2018-05-04T12:59:09.334Z,37.06
2018-05-04T13:01:37.037Z,37.33
2018-05-04T13:04:04.625Z,36.87
2018-05-04T13:06:32.258Z,36.79
2018-05-04T13:08:59.825Z,37.24
2018-05-04T13:11:27.388Z,37.00
2018-05-04T13:13:55.042Z,36.79
2018-05-04T13:16:22.661Z,36.64
2018-05-04T13:18:51.208Z,36.20
2018-05-04T13:21:18.764Z,35.90
2018-05-04T13:23:46.393Z,36.34
2018-05-04T13:26:14.017Z,36.50
2018-05-04T13:28:41.588Z,36.55
2018-05-04T13:31:09.143Z,36.05
2018-05-04T13:33:36.697Z,35.50
2018-05-04T13:36:04.332Z,34.84
2018-05-04T13:38:31.909Z,34.77
2018-05-04T13:40:59.484Z,35.01
2018-05-04T13:43:27.096Z,35.17
2018-05-04T13:45:54.657Z,35.50
2018-05-04T13:48:22.293Z,35.23
2018-05-04T13:50:49.937Z,35.19
2018-05-04T13:53:17.628Z,35.58
2018-05-04T13:55:45.187Z,35.89
2018-05-04T13:58:12.804Z,35.59
2018-05-04T14:00:40.429Z,34.31
2018-05-04T14:03:08.017Z,33.48
2018-05-04T14:05:35.740Z,32.92
2018-05-04T14:08:03.297Z,32.25
2018-05-04T14:10:30.886Z,31.79
2018-05-04T14:12:58.451Z,31.49
2018-05-04T14:15:26.052Z,31.33
2018-05-04T14:17:53.613Z,31.12
2018-05-04T14:20:21.230Z,30.92
2018-05-04T14:22:48.789Z,30.83
2018-05-04T14:25:16.353Z,30.57
2018-05-04T14:27:43.960Z,30.45
2018-05-04T14:30:11.571Z,30.27
2018-05-04T14:32:39.180Z,30.23
2018-05-04T14:35:06.745Z,30.15
2018-05-04T14:37:34.370Z,30.05
2018-05-04T14:40:01.977Z,29.98
2018-05-04T14:42:29.576Z,29.83
2018-05-04T14:44:57.129Z,29.79
2018-05-04T14:47:24.842Z,29.73
2018-05-04T14:49:52.501Z,29.66
2018-05-04T14:52:20.057Z,29.60
2018-05-04T14:54:47.636Z,29.55
2018-05-04T14:57:15.204Z,29.49
2018-05-04T14:59:42.825Z,29.34
2018-05-04T15:02:10.376Z,29.29
2018-05-04T15:04:38.062Z,29.23
2018-05-04T15:07:05.681Z,29.24
2018-05-04T15:09:33.237Z,29.18
2018-05-04T15:12:00.932Z,29.15
2018-05-04T15:14:28.389Z,29.06
2018-05-04T15:16:56.070Z,29.03
2018-05-04T15:19:23.697Z,28.96
2018-05-04T15:21:51.304Z,28.95
2018-05-04T15:24:18.860Z,28.85
2018-05-04T15:26:46.412Z,28.77
2018-05-04T15:29:14.000Z,28.75
2018-05-04T15:31:41.541Z,28.68
2018-05-04T15:34:09.161Z,28.55
2018-05-04T15:36:36.716Z,28.52
2018-05-04T15:39:04.365Z,28.42
2018-05-04T15:41:31.936Z,28.31
2018-05-04T15:43:59.556Z,28.30
2018-05-04T15:46:27.170Z,28.20
2018-05-04T15:49:00.324Z,28.13
2018-05-04T15:51:33.462Z,28.05
2018-05-04T15:54:01.170Z,27.99
2018-05-04T15:56:28.741Z,27.96
2018-05-04T15:58:56.321Z,27.88
2018-05-04T16:01:23.955Z,27.85
2018-05-04T16:03:51.575Z,27.73
2018-05-04T16:06:19.160Z,27.71
2018-05-04T16:08:46.769Z,27.59
2018-05-04T16:11:14.339Z,27.50
2018-05-04T16:13:41.951Z,27.45
2018-05-04T16:16:09.501Z,27.40
2018-05-04T16:18:37.116Z,27.26
2018-05-04T16:21:04.751Z,27.15
2018-05-04T16:23:32.301Z,27.10
2018-05-04T16:25:59.956Z,27.03
2018-05-04T16:28:27.593Z,26.92
2018-05-04T16:30:55.165Z,26.78
2018-05-04T16:33:22.734Z,26.73
2018-05-04T16:35:50.312Z,26.60
2018-05-04T16:38:17.929Z,26.52
2018-05-04T16:40:45.491Z,26.37
2018-05-04T16:43:13.109Z,26.27
2018-05-04T16:45:40.735Z,26.16
2018-05-04T16:48:14.081Z,26.06
2018-05-04T16:50:41.673Z,25.92
2018-05-04T16:53:09.247Z,25.76
2018-05-04T16:55:36.904Z,25.68
2018-05-04T16:58:04.682Z,25.59
2018-05-04T17:00:32.365Z,25.47
2018-05-04T17:02:59.989Z,25.32
2018-05-04T17:05:27.557Z,25.26
2018-05-04T17:07:55.164Z,25.16
2018-05-04T17:10:22.804Z,25.06
2018-05-04T17:12:50.425Z,25.03
2018-05-04T17:15:18.081Z,24.94
2018-05-04T17:17:45.709Z,24.85
2018-05-04T17:20:13.264Z,24.81
2018-05-04T17:22:40.825Z,24.72
2018-05-04T17:25:08.433Z,24.62
2018-05-04T17:27:36.039Z,24.48
2018-05-04T17:30:03.614Z,24.35
2018-05-04T17:32:31.229Z,24.23
2018-05-04T17:34:58.792Z,24.11
2018-05-04T17:37:26.355Z,23.99
2018-05-04T17:39:53.981Z,23.90
2018-05-04T17:42:21.642Z,23.85
2018-05-04T17:44:49.271Z,23.72
2018-05-04T17:47:16.912Z,23.67
2018-05-04T17:49:44.428Z,23.60
2018-05-04T17:52:12.033Z,23.51
2018-05-04T17:54:39.658Z,23.45
2018-05-04T17:57:07.210Z,23.34
2018-05-04T17:59:34.773Z,23.20
2018-05-04T18:02:02.425Z,23.05
2018-05-04T18:04:29.984Z,22.92
2018-05-04T18:06:57.617Z,22.79
2018-05-04T18:09:25.276Z,22.68
2018-05-04T18:11:52.881Z,22.55
2018-05-04T18:14:20.497Z,22.46
2018-05-04T18:16:48.122Z,22.34
2018-05-04T18:19:15.744Z,22.23
2018-05-04T18:21:43.382Z,22.12
2018-05-04T18:24:11.016Z,22.03
2018-05-04T18:26:38.592Z,21.96
2018-05-04T18:29:06.212Z,21.85
2018-05-04T18:31:33.847Z,21.82
2018-05-04T18:34:01.466Z,21.80
2018-05-04T18:36:29.039Z,21.84
2018-05-04T18:38:56.617Z,21.79
2018-05-04T18:41:24.180Z,21.75
2018-05-04T18:43:51.799Z,21.73
2018-05-04T18:46:19.355Z,21.78
2018-05-04T18:48:46.931Z,21.75
2018-05-04T18:51:14.509Z,21.80
2018-05-04T18:53:42.129Z,21.79
2018-05-04T18:56:09.721Z,21.80
2018-05-04T18:58:37.316Z,21.84
2018-05-04T19:01:04.881Z,21.87
2018-05-04T19:03:32.509Z,21.91
2018-05-04T19:06:00.122Z,21.94
2018-05-04T19:08:27.738Z,21.91
2018-05-04T19:10:55.360Z,21.94
2018-05-04T19:13:22.929Z,21.93
2018-05-04T19:15:50.507Z,21.93
2018-05-04T19:18:18.083Z,21.92
2018-05-04T19:20:45.769Z,21.88
2018-05-04T19:23:13.385Z,21.86
2018-05-04T19:25:40.961Z,21.83
2018-05-04T19:28:08.601Z,21.82
2018-05-04T19:30:36.189Z,21.81
2018-05-04T19:33:03.812Z,21.81
2018-05-04T19:35:31.437Z,21.80
2018-05-04T19:37:58.999Z,21.81
2018-05-04T19:40:26.630Z,21.71
2018-05-04T19:42:54.202Z,21.63
2018-05-04T19:45:21.825Z,21.64
2018-05-04T19:47:49.449Z,21.64
2018-05-04T19:50:17.005Z,21.61
2018-05-04T19:52:44.582Z,21.61
2018-05-04T19:55:12.198Z,21.58
2018-05-04T19:57:39.877Z,21.53
2018-05-04T20:00:07.508Z,21.48
2018-05-04T20:02:35.064Z,21.50
2018-05-04T20:05:02.748Z,21.48
2018-05-04T20:07:30.373Z,21.44
2018-05-04T20:09:57.936Z,21.36
2018-05-04T20:12:25.512Z,21.30
2018-05-04T20:14:53.209Z,21.24
2018-05-04T20:17:20.783Z,21.13
2018-05-04T20:19:48.357Z,21.05
2018-05-04T20:22:15.989Z,20.95
2018-05-04T20:24:43.595Z,20.84
2018-05-04T20:27:11.228Z,20.69
2018-05-04T20:29:38.913Z,20.53
2018-05-04T20:32:06.479Z,20.51
2018-05-04T20:34:34.050Z,20.40
2018-05-04T20:37:01.680Z,20.29
2018-05-04T20:39:29.318Z,20.18
2018-05-04T20:41:56.963Z,20.07
2018-05-04T20:44:24.592Z,19.94
2018-05-04T20:46:52.227Z,19.79
2018-05-04T20:49:19.805Z,19.70
2018-05-04T20:51:47.374Z,19.61
2018-05-04T20:54:14.976Z,19.52
2018-05-04T20:56:42.536Z,19.43
2018-05-04T20:59:10.165Z,19.34
2018-05-04T21:01:37.721Z,19.30
2018-05-04T21:04:05.342Z,19.25
2018-05-04T21:06:32.919Z,19.16
2018-05-04T21:09:00.480Z,19.10
2018-05-04T21:11:28.089Z,19.02
2018-05-04T21:13:55.719Z,18.97
2018-05-04T21:16:23.413Z,18.91
2018-05-04T21:18:50.972Z,18.87
2018-05-04T21:21:18.533Z,18.82
2018-05-04T21:23:46.157Z,18.77
2018-05-04T21:26:13.773Z,18.71
2018-05-04T21:28:41.454Z,18.64
2018-05-04T21:31:09.134Z,18.60
2018-05-04T21:33:36.757Z,18.52
2018-05-04T21:36:04.308Z,18.47
2018-05-04T21:38:31.915Z,18.41
2018-05-04T21:40:59.544Z,18.35
2018-05-04T21:43:27.217Z,18.31
2018-05-04T21:45:54.786Z,18.25
2018-05-04T21:48:22.344Z,18.21
2018-05-04T21:50:49.976Z,18.16
2018-05-04T21:53:17.532Z,18.07
2018-05-04T21:55:45.136Z,18.03
2018-05-04T21:58:12.681Z,17.98
2018-05-04T22:00:40.244Z,17.91
2018-05-04T22:03:07.834Z,17.87
2018-05-04T22:05:35.471Z,17.84
2018-05-04T22:08:14.530Z,17.80
2018-05-04T22:10:42.080Z,17.74
2018-05-04T22:13:09.640Z,17.72
2018-05-04T22:15:37.296Z,17.69
2018-05-04T22:18:04.856Z,17.67
2018-05-04T22:20:32.445Z,17.59
2018-05-04T22:23:00.070Z,17.55
2018-05-04T22:25:27.742Z,17.54
2018-05-04T22:27:55.371Z,17.48
2018-05-04T22:30:22.960Z,17.48
2018-05-04T22:32:50.522Z,17.46
2018-05-04T22:35:18.159Z,17.44
2018-05-04T22:37:45.791Z,17.44
2018-05-04T22:40:13.422Z,17.40
2018-05-04T22:42:41.076Z,17.36
2018-05-04T22:45:08.674Z,17.33
2018-05-04T22:47:36.233Z,17.29
2018-05-04T22:50:03.920Z,17.24
2018-05-04T22:52:31.557Z,17.19
2018-05-04T22:54:59.181Z,17.14
2018-05-04T22:57:26.736Z,17.05
2018-05-04T22:59:54.408Z,17.00
2018-05-04T23:02:21.986Z,16.94
2018-05-04T23:04:49.550Z,16.91
2018-05-04T23:07:17.123Z,16.92
2018-05-04T23:09:44.745Z,16.88
2018-05-04T23:12:12.312Z,16.84
2018-05-04T23:14:39.876Z,16.86
2018-05-04T23:17:07.498Z,16.79
2018-05-04T23:19:35.060Z,16.77
2018-05-04T23:22:02.631Z,16.75
2018-05-04T23:24:30.204Z,16.71
2018-05-04T23:26:57.825Z,16.65
2018-05-04T23:29:25.378Z,16.61
2018-05-04T23:31:53.007Z,16.54
2018-05-04T23:34:20.645Z,16.53
2018-05-04T23:36:48.222Z,16.53
2018-05-04T23:39:15.799Z,16.51
2018-05-04T23:41:43.364Z,16.47
2018-05-04T23:44:10.920Z,16.41
2018-05-04T23:46:38.550Z,16.33
2018-05-04T23:49:06.115Z,16.31
2018-05-04T23:51:33.728Z,16.30
2018-05-04T23:54:01.284Z,16.29
2018-05-04T23:56:28.905Z,16.26
2018-05-04T23:58:56.477Z,16.22
